createdAt,value
2022-10-09T00:00:24.575Z,7.08
2022-10-09T00:03:09.689Z,7.03
2022-10-09T00:05:54.497Z,7.09
2022-10-09T00:08:40.820Z,7.05
2022-10-09T00:11:27.602Z,7.06
2022-10-09T00:14:12.654Z,7.12
2022-10-09T00:16:57.772Z,6.98
2022-10-09T00:19:42.806Z,7.00
2022-10-09T00:22:27.951Z,7.24
2022-10-09T00:25:12.804Z,7.27
2022-10-09T00:27:59.021Z,7.28
2022-10-09T00:30:45.217Z,7.32
2022-10-09T00:33:30.258Z,7.17
2022-10-09T00:36:18.439Z,6.89
2022-10-09T00:39:03.243Z,6.90
2022-10-09T00:41:48.373Z,6.91
2022-10-09T00:44:57.763Z,6.65
2022-10-09T00:47:47.804Z,6.85
2022-10-09T00:50:44.521Z,6.81
2022-10-09T00:53:30.632Z,6.79
2022-10-09T00:56:15.515Z,6.77
2022-10-09T00:59:01.380Z,6.83
2022-10-09T01:01:47.191Z,6.78
2022-10-09T01:04:31.884Z,6.67
2022-10-09T01:07:48.971Z,6.73
2022-10-09T01:10:41.486Z,6.62
2022-10-09T01:13:39.067Z,6.49
2022-10-09T01:16:32.128Z,6.42
2022-10-09T01:19:38.653Z,6.34
2022-10-09T01:22:38.882Z,6.36
2022-10-09T01:25:34.394Z,6.42
2022-10-09T01:28:23.590Z,6.49
2022-10-09T01:31:09.801Z,6.41
2022-10-09T01:33:54.653Z,6.39
2022-10-09T01:36:42.271Z,6.34
2022-10-09T01:39:29.691Z,6.30
2022-10-09T01:42:16.036Z,6.22
2022-10-09T01:45:00.910Z,6.22
2022-10-09T01:47:46.281Z,6.17
2022-10-09T01:50:37.381Z,6.18
2022-10-09T01:53:24.299Z,6.03
2022-10-09T01:56:14.363Z,6.06
2022-10-09T01:59:03.911Z,6.01
2022-10-09T02:01:51.403Z,6.23
2022-10-09T02:04:43.407Z,6.33
2022-10-09T02:07:31.184Z,6.27
2022-10-09T02:10:18.481Z,6.22
2022-10-09T02:13:04.160Z,6.12
2022-10-09T02:15:54.922Z,5.95
2022-10-09T02:18:45.365Z,5.91
2022-10-09T02:21:46.458Z,5.82
2022-10-09T02:24:32.793Z,5.69
2022-10-09T02:27:20.017Z,5.61
2022-10-09T02:30:08.198Z,5.67
2022-10-09T02:32:54.338Z,5.76
2022-10-09T02:35:40.244Z,5.84
2022-10-09T02:38:25.288Z,5.73
2022-10-09T02:41:10.084Z,5.67
2022-10-09T02:43:55.469Z,5.56
2022-10-09T02:46:40.254Z,5.56
2022-10-09T02:49:25.610Z,5.53
2022-10-09T02:52:10.798Z,5.62
2022-10-09T02:54:55.860Z,5.52
2022-10-09T02:57:40.988Z,5.56
2022-10-09T03:00:26.087Z,5.55
2022-10-09T03:03:11.318Z,5.57
2022-10-09T03:06:04.071Z,5.43
2022-10-09T03:08:50.223Z,5.47
2022-10-09T03:11:35.364Z,5.41
2022-10-09T03:14:20.367Z,5.50
2022-10-09T03:17:05.523Z,5.48
2022-10-09T03:19:50.690Z,5.52
2022-10-09T03:22:35.671Z,5.50
2022-10-09T03:25:20.674Z,5.50
2022-10-09T03:28:05.928Z,5.50
2022-10-09T03:30:52.037Z,5.36
2022-10-09T03:33:37.573Z,5.34
2022-10-09T03:36:22.365Z,5.23
2022-10-09T03:39:08.098Z,5.15
2022-10-09T03:41:53.180Z,5.18
2022-10-09T03:44:38.293Z,5.12
2022-10-09T03:47:23.046Z,5.15
2022-10-09T03:50:08.511Z,5.07
2022-10-09T03:52:53.697Z,5.16
2022-10-09T03:55:39.150Z,5.08
2022-10-09T03:58:24.258Z,5.10
2022-10-09T04:01:09.487Z,5.02
2022-10-09T04:03:54.211Z,5.06
2022-10-09T04:06:39.356Z,5.09
2022-10-09T04:09:24.505Z,5.05
2022-10-09T04:12:09.315Z,5.11
2022-10-09T04:14:54.456Z,5.08
2022-10-09T04:17:39.896Z,5.03
2022-10-09T04:20:24.754Z,5.09
2022-10-09T04:23:09.607Z,5.09
2022-10-09T04:25:56.335Z,4.99
2022-10-09T04:28:41.566Z,5.02
2022-10-09T04:31:26.636Z,4.96
2022-10-09T04:34:11.437Z,4.91
2022-10-09T04:36:56.680Z,4.94
2022-10-09T04:39:41.524Z,4.88
2022-10-09T04:42:26.632Z,5.00
2022-10-09T04:45:11.588Z,4.99
2022-10-09T04:47:56.622Z,4.97
2022-10-09T04:50:41.705Z,5.09
2022-10-09T04:53:26.728Z,5.01
2022-10-09T04:56:14.813Z,5.05
2022-10-09T04:58:59.724Z,5.08
2022-10-09T05:01:45.034Z,5.02
2022-10-09T05:04:30.307Z,4.96
2022-10-09T05:07:15.254Z,4.90
2022-10-09T05:10:00.478Z,4.94
2022-10-09T05:12:45.905Z,4.99
2022-10-09T05:15:31.758Z,5.00
2022-10-09T05:18:16.691Z,5.00
2022-10-09T05:21:05.366Z,5.02
2022-10-09T05:23:50.713Z,4.94
2022-10-09T05:26:35.667Z,5.00
2022-10-09T05:29:20.604Z,4.99
2022-10-09T05:32:05.849Z,4.98
2022-10-09T05:34:50.899Z,4.89
2022-10-09T05:37:36.004Z,5.02
2022-10-09T05:40:22.040Z,5.04
2022-10-09T05:43:08.131Z,4.98
2022-10-09T05:45:53.659Z,5.00
2022-10-09T05:48:40.586Z,5.08
2022-10-09T05:51:27.285Z,5.00
2022-10-09T05:54:16.996Z,4.87
2022-10-09T05:57:01.881Z,4.94
2022-10-09T05:59:47.503Z,4.96
2022-10-09T06:02:32.816Z,4.74
2022-10-09T06:05:17.593Z,4.94
2022-10-09T06:08:02.773Z,4.95
2022-10-09T06:10:47.845Z,5.04
2022-10-09T06:13:32.945Z,5.06
2022-10-09T06:16:18.528Z,5.10
2022-10-09T06:19:04.599Z,5.10
2022-10-09T06:21:50.432Z,4.92
2022-10-09T06:24:35.449Z,4.90
2022-10-09T06:27:20.311Z,4.63
2022-10-09T06:30:05.893Z,4.81
2022-10-09T06:32:51.844Z,4.69
2022-10-09T06:35:37.228Z,4.35
2022-10-09T06:38:22.374Z,4.51
2022-10-09T06:41:10.445Z,4.82
2022-10-09T06:44:06.542Z,4.97
2022-10-09T06:46:51.617Z,5.19
2022-10-09T06:49:36.564Z,4.97
2022-10-09T06:52:21.503Z,5.02
2022-10-09T06:55:06.913Z,5.04
2022-10-09T06:57:51.726Z,5.22
2022-10-09T07:00:37.027Z,5.03
2022-10-09T07:03:21.896Z,5.22
2022-10-09T07:06:13.134Z,4.98
2022-10-09T07:09:01.065Z,4.52
2022-10-09T07:11:48.898Z,5.02
2022-10-09T07:14:34.000Z,5.12
2022-10-09T07:17:18.991Z,5.48
2022-10-09T07:20:04.338Z,5.79
2022-10-09T07:22:49.560Z,5.58
2022-10-09T07:25:38.458Z,5.39
2022-10-09T07:28:25.200Z,5.03
2022-10-09T07:31:11.528Z,5.55
2022-10-09T07:33:57.761Z,5.64
2022-10-09T07:36:42.970Z,5.67
2022-10-09T07:39:27.738Z,5.77
2022-10-09T07:42:12.411Z,6.01
2022-10-09T07:44:57.369Z,6.07
2022-10-09T07:47:42.384Z,6.24
2022-10-09T07:50:27.531Z,6.37
2022-10-09T07:53:12.793Z,6.17
2022-10-09T07:55:57.504Z,6.28
2022-10-09T07:58:43.498Z,6.55
2022-10-09T08:01:30.240Z,6.30
2022-10-09T08:04:15.236Z,6.64
2022-10-09T08:07:00.329Z,6.61
2022-10-09T08:09:45.407Z,6.70
2022-10-09T08:12:30.471Z,6.01
2022-10-09T08:15:15.754Z,6.30
2022-10-09T08:18:00.965Z,6.88
2022-10-09T08:20:56.555Z,7.35
2022-10-09T08:23:42.724Z,8.03
2022-10-09T08:26:29.645Z,7.99
2022-10-09T08:29:16.380Z,8.12
2022-10-09T08:32:01.349Z,7.84
2022-10-09T08:34:46.890Z,8.06
2022-10-09T08:37:32.099Z,7.90
2022-10-09T08:40:20.823Z,8.41
2022-10-09T08:43:07.267Z,8.23
2022-10-09T08:45:52.567Z,8.28
2022-10-09T08:48:43.732Z,8.34
2022-10-09T08:51:33.104Z,8.63
2022-10-09T08:54:35.259Z,8.73
2022-10-09T08:57:21.581Z,8.81
2022-10-09T09:00:17.791Z,8.75
2022-10-09T09:03:41.806Z,9.05
2022-10-09T09:06:46.363Z,10.73
2022-10-09T09:10:12.740Z,13.87
2022-10-09T09:13:34.818Z,15.87
2022-10-09T09:16:45.410Z,15.98
2022-10-09T09:19:50.738Z,15.82
2022-10-09T09:22:39.657Z,15.57
2022-10-09T09:25:28.847Z,14.37
2022-10-09T09:28:20.016Z,12.91
2022-10-09T09:31:24.740Z,12.30
2022-10-09T09:34:25.032Z,13.19
2022-10-09T09:37:11.786Z,14.35
2022-10-09T09:43:04.917Z,13.58
2022-10-09T09:45:58.620Z,13.07
2022-10-09T09:48:47.246Z,13.03
2022-10-09T09:51:32.833Z,13.25
2022-10-09T09:57:13.014Z,13.47
2022-10-09T10:00:21.971Z,13.84
2022-10-09T10:06:02.879Z,15.03
2022-10-09T10:09:04.467Z,14.97
2022-10-09T10:11:59.329Z,14.80
2022-10-09T10:14:50.730Z,16.03
2022-10-09T10:17:36.925Z,15.99
2022-10-09T10:20:22.611Z,15.91
2022-10-09T10:23:33.181Z,15.53
2022-10-09T10:26:35.623Z,15.64
2022-10-09T10:29:24.953Z,16.97
2022-10-09T10:32:32.261Z,18.19
2022-10-09T10:35:22.348Z,18.87
2022-10-09T10:38:18.648Z,18.64
2022-10-09T10:41:12.632Z,19.47
2022-10-09T10:44:06.881Z,17.70
2022-10-09T10:47:02.179Z,17.88
2022-10-09T10:49:47.459Z,16.74
2022-10-09T10:52:57.216Z,16.07
2022-10-09T10:55:55.647Z,15.96
2022-10-09T10:59:04.580Z,16.23
2022-10-09T11:02:16.004Z,15.30
2022-10-09T11:05:46.858Z,17.39
2022-10-09T11:08:41.490Z,18.39
2022-10-09T11:11:35.869Z,17.03
2022-10-09T11:14:44.021Z,16.85
2022-10-09T11:17:44.833Z,16.25
2022-10-09T11:20:38.785Z,16.56
2022-10-09T11:23:43.013Z,17.01
2022-10-09T11:26:53.761Z,17.73
2022-10-09T11:29:47.828Z,17.99
2022-10-09T11:32:38.608Z,17.49
2022-10-09T11:35:37.447Z,18.23
2022-10-09T11:38:33.262Z,17.38
2022-10-09T11:41:19.810Z,16.36
2022-10-09T11:44:18.239Z,16.05
2022-10-09T11:47:16.631Z,16.14
2022-10-09T11:50:49.029Z,16.24
2022-10-09T11:53:36.877Z,16.33
2022-10-09T11:56:23.175Z,16.46
2022-10-09T11:59:21.919Z,16.31
2022-10-09T12:02:25.947Z,16.43
2022-10-09T12:05:20.017Z,16.42
2022-10-09T12:08:31.367Z,16.35
2022-10-09T12:11:19.782Z,16.35
2022-10-09T12:14:07.579Z,16.46
2022-10-09T12:16:52.885Z,16.48
2022-10-09T12:19:40.215Z,16.38
2022-10-09T12:22:56.360Z,16.43
2022-10-09T12:25:47.460Z,16.67
2022-10-09T12:28:39.136Z,16.73
2022-10-09T12:31:33.833Z,16.57
2022-10-09T12:34:23.953Z,16.38
2022-10-09T12:37:22.622Z,16.46
2022-10-09T12:40:16.206Z,16.68
2022-10-09T12:43:09.799Z,16.74
2022-10-09T12:45:55.604Z,16.75
2022-10-09T12:48:43.521Z,17.01
2022-10-09T12:51:30.939Z,16.71
2022-10-09T12:54:16.148Z,16.97
2022-10-09T12:57:04.720Z,16.81
2022-10-09T12:59:53.048Z,16.54
2022-10-09T13:02:38.358Z,16.54
2022-10-09T13:05:23.576Z,16.92
2022-10-09T13:08:24.098Z,16.87
2022-10-09T13:11:29.159Z,17.06
2022-10-09T13:14:38.682Z,17.01
2022-10-09T13:17:29.762Z,16.82
2022-10-09T13:20:17.661Z,16.68
2022-10-09T13:23:05.287Z,16.78
2022-10-09T13:25:51.882Z,16.80
2022-10-09T13:28:40.200Z,16.94
2022-10-09T13:31:27.022Z,16.70
2022-10-09T13:34:13.291Z,16.92
2022-10-09T13:36:58.633Z,16.69
2022-10-09T13:39:43.953Z,16.61
2022-10-09T13:42:33.797Z,16.67
2022-10-09T13:45:19.035Z,16.59
2022-10-09T13:48:03.773Z,16.70
2022-10-09T13:50:49.323Z,16.52
2022-10-09T13:53:35.833Z,16.64
2022-10-09T13:56:21.514Z,16.83
2022-10-09T13:59:06.624Z,16.88
2022-10-09T14:01:52.307Z,16.78
2022-10-09T14:04:37.292Z,16.87
2022-10-09T14:07:22.067Z,16.59
2022-10-09T14:10:07.483Z,16.63
2022-10-09T14:12:52.843Z,16.89
2022-10-09T14:15:41.695Z,16.58
2022-10-09T14:18:26.907Z,16.68
2022-10-09T14:21:15.345Z,16.62
2022-10-09T14:24:02.700Z,16.74
2022-10-09T14:26:51.498Z,16.90
2022-10-09T14:29:42.190Z,17.08
2022-10-09T14:32:27.743Z,16.97
2022-10-09T14:35:19.358Z,16.93
2022-10-09T14:38:06.402Z,16.92
2022-10-09T14:40:51.493Z,16.82
2022-10-09T14:43:39.671Z,16.83
2022-10-09T14:46:26.334Z,16.60
2022-10-09T14:49:11.456Z,16.48
2022-10-09T14:51:56.886Z,16.43
2022-10-09T14:54:41.984Z,16.38
2022-10-09T14:57:29.287Z,16.44
2022-10-09T15:00:18.079Z,16.63
2022-10-09T15:03:03.253Z,16.64
2022-10-09T15:05:48.260Z,16.52
2022-10-09T15:08:35.295Z,16.35
2022-10-09T15:11:20.559Z,16.30
2022-10-09T15:14:05.682Z,16.33
2022-10-09T15:16:51.884Z,16.34
2022-10-09T15:19:37.651Z,16.23
2022-10-09T15:22:22.521Z,16.24
2022-10-09T15:25:08.307Z,16.18
2022-10-09T15:27:54.892Z,16.17
2022-10-09T15:30:44.643Z,16.15
2022-10-09T15:33:29.756Z,16.10
2022-10-09T15:36:16.900Z,16.08
2022-10-09T15:39:05.797Z,16.02
2022-10-09T15:41:50.930Z,15.96
2022-10-09T15:44:36.049Z,15.89
2022-10-09T15:47:39.156Z,15.82
2022-10-09T15:50:25.844Z,15.78
2022-10-09T15:53:14.672Z,15.75
2022-10-09T15:56:06.188Z,15.67
2022-10-09T15:58:52.744Z,15.57
2022-10-09T16:01:37.845Z,15.56
2022-10-09T16:04:23.054Z,15.47
2022-10-09T16:07:07.917Z,15.41
2022-10-09T16:09:55.083Z,15.29
2022-10-09T16:12:40.324Z,15.18
2022-10-09T16:15:25.367Z,15.14
2022-10-09T16:18:11.030Z,15.02
2022-10-09T16:20:56.263Z,14.99
2022-10-09T16:23:43.314Z,14.80
2022-10-09T16:26:31.082Z,14.71
2022-10-09T16:29:16.154Z,14.54
2022-10-09T16:32:01.379Z,14.41
2022-10-09T16:34:49.549Z,14.28
2022-10-09T16:37:34.653Z,14.21
2022-10-09T16:40:21.057Z,14.13
2022-10-09T16:43:11.026Z,14.05
2022-10-09T16:45:56.040Z,13.94
2022-10-09T16:48:41.293Z,13.88
2022-10-09T16:51:36.134Z,13.82
2022-10-09T16:54:21.109Z,13.73
2022-10-09T16:57:06.990Z,13.68
2022-10-09T16:59:51.849Z,13.64
2022-10-09T17:02:36.881Z,13.57
2022-10-09T17:05:21.825Z,13.49
2022-10-09T17:08:07.133Z,13.35
2022-10-09T17:10:52.238Z,13.03
2022-10-09T17:13:37.605Z,12.77
2022-10-09T17:16:24.729Z,12.60
2022-10-09T17:19:10.101Z,12.50
2022-10-09T17:21:55.132Z,12.44
2022-10-09T17:24:40.263Z,12.54
2022-10-09T17:27:25.260Z,12.51
2022-10-09T17:30:10.848Z,12.50
2022-10-09T17:32:56.063Z,12.30
2022-10-09T17:35:41.490Z,12.07
2022-10-09T17:38:27.887Z,12.17
2022-10-09T17:41:14.772Z,12.23
2022-10-09T17:43:59.736Z,12.23
2022-10-09T17:46:44.662Z,12.09
2022-10-09T17:49:29.439Z,11.78
2022-10-09T17:52:14.567Z,11.59
2022-10-09T17:54:59.388Z,11.53
2022-10-09T17:57:44.507Z,11.38
2022-10-09T18:00:29.906Z,11.29
2022-10-09T18:03:17.296Z,11.23
2022-10-09T18:06:06.442Z,11.13
2022-10-09T18:08:54.253Z,11.02
2022-10-09T18:11:39.583Z,10.93
2022-10-09T18:14:24.656Z,10.85
2022-10-09T18:17:09.867Z,10.79
2022-10-09T18:19:54.938Z,10.73
2022-10-09T18:22:40.097Z,10.70
2022-10-09T18:25:24.917Z,10.58
2022-10-09T18:28:11.443Z,10.51
2022-10-09T18:30:58.917Z,10.44
2022-10-09T18:33:44.190Z,10.39
2022-10-09T18:36:34.362Z,10.35
2022-10-09T18:39:21.377Z,10.30
2022-10-09T18:42:06.425Z,10.21
2022-10-09T18:44:51.405Z,10.15
2022-10-09T18:47:36.700Z,10.13
2022-10-09T18:50:22.064Z,10.07
2022-10-09T18:53:07.685Z,10.02
2022-10-09T18:55:52.878Z,9.97
2022-10-09T18:58:40.266Z,9.90
2022-10-09T19:01:25.081Z,9.87
2022-10-09T19:04:09.945Z,9.81
2022-10-09T19:06:55.250Z,9.74
2022-10-09T19:09:40.915Z,9.69
2022-10-09T19:12:26.377Z,9.67
2022-10-09T19:15:12.382Z,9.66
2022-10-09T19:17:57.458Z,9.64
2022-10-09T19:20:42.713Z,9.46
2022-10-09T19:23:27.693Z,9.52
2022-10-09T19:26:13.544Z,9.50
2022-10-09T19:28:59.792Z,9.47
2022-10-09T19:31:44.885Z,9.39
2022-10-09T19:34:30.277Z,9.37
2022-10-09T19:37:15.328Z,9.29
2022-10-09T19:40:00.117Z,9.20
2022-10-09T19:42:45.301Z,9.14
2022-10-09T19:45:31.094Z,9.10
2022-10-09T19:48:18.030Z,9.03
2022-10-09T19:51:07.971Z,8.99
2022-10-09T19:53:53.480Z,8.91
2022-10-09T19:56:40.015Z,8.79
2022-10-09T19:59:28.463Z,8.81
2022-10-09T20:02:13.496Z,8.82
2022-10-09T20:04:58.773Z,8.83
2022-10-09T20:07:44.355Z,8.78
2022-10-09T20:10:30.165Z,8.68
2022-10-09T20:13:15.488Z,8.60
2022-10-09T20:16:02.632Z,8.61
2022-10-09T20:18:48.135Z,8.57
2022-10-09T20:21:34.386Z,8.65
2022-10-09T20:24:19.945Z,8.67
2022-10-09T20:27:05.951Z,8.67
2022-10-09T20:29:52.897Z,8.58
2022-10-09T20:32:38.033Z,8.64
2022-10-09T20:35:23.032Z,8.59
2022-10-09T20:38:08.985Z,8.57
2022-10-09T20:40:54.535Z,8.55
2022-10-09T20:43:40.142Z,8.57
2022-10-09T20:46:27.895Z,8.49
2022-10-09T20:49:14.136Z,8.51
2022-10-09T20:51:59.498Z,8.42
2022-10-09T20:54:44.377Z,8.35
2022-10-09T20:57:29.203Z,8.29
2022-10-09T21:00:14.479Z,8.24
2022-10-09T21:02:59.590Z,8.18
2022-10-09T21:05:44.682Z,8.20
2022-10-09T21:08:29.606Z,8.15
2022-10-09T21:11:17.185Z,8.19
2022-10-09T21:14:03.727Z,8.17
2022-10-09T21:16:48.997Z,8.11
2022-10-09T21:19:34.176Z,8.00
2022-10-09T21:22:19.133Z,7.96
2022-10-09T21:25:04.548Z,7.88
2022-10-09T21:27:49.405Z,7.82
2022-10-09T21:30:41.532Z,7.85
2022-10-09T21:33:26.775Z,7.85
2022-10-09T21:36:16.582Z,7.90
2022-10-09T21:39:02.786Z,7.82
2022-10-09T21:41:47.887Z,7.78
2022-10-09T21:44:32.953Z,7.78
2022-10-09T21:47:18.704Z,7.71
2022-10-09T21:50:04.119Z,7.56
2022-10-09T21:52:49.727Z,7.52
2022-10-09T21:55:37.555Z,7.43
2022-10-09T21:58:22.669Z,7.46
2022-10-09T22:01:08.154Z,7.51
2022-10-09T22:03:53.861Z,7.55
2022-10-09T22:06:40.974Z,7.46
2022-10-09T22:09:26.155Z,7.40
2022-10-09T22:12:11.952Z,7.43
2022-10-09T22:14:57.474Z,7.39
2022-10-09T22:17:42.461Z,7.32
2022-10-09T22:20:28.247Z,7.30
2022-10-09T22:23:13.818Z,7.24
2022-10-09T22:26:02.296Z,7.17
2022-10-09T22:28:48.527Z,7.19
2022-10-09T22:31:33.505Z,7.11
2022-10-09T22:34:19.252Z,7.11
2022-10-09T22:37:04.544Z,7.09
2022-10-09T22:39:49.408Z,7.07
2022-10-09T22:42:34.652Z,7.06
2022-10-09T22:45:19.615Z,7.04
2022-10-09T22:48:04.759Z,6.92
2022-10-09T22:50:51.904Z,6.93
2022-10-09T22:53:38.099Z,7.00
2022-10-09T22:56:26.920Z,7.01
2022-10-09T22:59:15.638Z,6.95
2022-10-09T23:02:00.800Z,6.95
2022-10-09T23:04:45.759Z,6.99
2022-10-09T23:07:30.537Z,6.96
2022-10-09T23:10:15.673Z,6.87
2022-10-09T23:13:00.820Z,6.90
2022-10-09T23:15:45.926Z,6.85
2022-10-09T23:18:32.058Z,6.76
2022-10-09T23:21:19.858Z,6.74
2022-10-09T23:24:06.030Z,6.73
2022-10-09T23:26:52.109Z,6.76
2022-10-09T23:29:36.913Z,6.80
2022-10-09T23:32:21.768Z,6.76
2022-10-09T23:35:07.253Z,6.75
2022-10-09T23:37:55.648Z,6.71
2022-10-09T23:40:40.948Z,6.64
2022-10-09T23:43:27.058Z,6.63
2022-10-09T23:46:15.075Z,6.67
2022-10-09T23:49:00.532Z,6.61
2022-10-09T23:51:48.190Z,6.53
2022-10-09T23:54:33.360Z,6.51
2022-10-09T23:57:18.926Z,6.47
